sensor_id;sensor_type;location;lat;lon;timestamp;P1;durP1;ratioP1;P2;durP2;ratioP2
25838;SDS011;13669;50.186;27.062;2022-07-30T00:01:33;6.60;;;5.13;;
25838;SDS011;13669;50.186;27.062;2022-07-30T00:04:02;7.93;;;5.03;;
25838;SDS011;13669;50.186;27.062;2022-07-30T00:06:30;7.38;;;5.60;;
25838;SDS011;13669;50.186;27.062;2022-07-30T00:08:58;9.63;;;5.55;;
25838;SDS011;13669;50.186;27.062;2022-07-30T00:11:25;7.82;;;5.50;;
25838;SDS011;13669;50.186;27.062;2022-07-30T00:13:54;8.73;;;5.63;;
25838;SDS011;13669;50.186;27.062;2022-07-30T00:16:21;8.27;;;5.60;;
25838;SDS011;13669;50.186;27.062;2022-07-30T00:18:49;10.43;;;5.47;;
25838;SDS011;13669;50.186;27.062;2022-07-30T00:21:17;8.68;;;5.28;;
25838;SDS011;13669;50.186;27.062;2022-07-30T00:24:01;6.18;;;4.85;;
25838;SDS011;13669;50.186;27.062;2022-07-30T00:26:28;9.38;;;5.68;;
25838;SDS011;13669;50.186;27.062;2022-07-30T00:28:56;7.75;;;5.05;;
25838;SDS011;13669;50.186;27.062;2022-07-30T00:31:23;8.45;;;5.32;;
25838;SDS011;13669;50.186;27.062;2022-07-30T00:33:51;8.25;;;5.57;;
25838;SDS011;13669;50.186;27.062;2022-07-30T00:36:18;5.78;;;5.05;;
25838;SDS011;13669;50.186;27.062;2022-07-30T00:38:46;7.53;;;5.13;;
25838;SDS011;13669;50.186;27.062;2022-07-30T00:41:13;9.95;;;5.22;;
25838;SDS011;13669;50.186;27.062;2022-07-30T00:43:41;10.02;;;5.88;;
25838;SDS011;13669;50.186;27.062;2022-07-30T00:46:09;8.93;;;5.82;;
25838;SDS011;13669;50.186;27.062;2022-07-30T00:48:36;10.65;;;6.20;;
25838;SDS011;13669;50.186;27.062;2022-07-30T00:51:04;11.98;;;6.15;;
25838;SDS011;13669;50.186;27.062;2022-07-30T00:53:32;10.77;;;6.43;;
25838;SDS011;13669;50.186;27.062;2022-07-30T00:56:01;9.63;;;6.28;;
25838;SDS011;13669;50.186;27.062;2022-07-30T00:58:29;10.23;;;5.93;;
25838;SDS011;13669;50.186;27.062;2022-07-30T01:00:57;15.30;;;6.65;;
25838;SDS011;13669;50.186;27.062;2022-07-30T01:03:24;10.95;;;6.10;;
25838;SDS011;13669;50.186;27.062;2022-07-30T01:05:52;11.50;;;6.68;;
25838;SDS011;13669;50.186;27.062;2022-07-30T01:08:19;8.70;;;6.22;;
25838;SDS011;13669;50.186;27.062;2022-07-30T01:10:47;13.57;;;6.80;;
25838;SDS011;13669;50.186;27.062;2022-07-30T01:13:14;10.27;;;6.30;;
25838;SDS011;13669;50.186;27.062;2022-07-30T01:15:42;9.50;;;6.05;;
25838;SDS011;13669;50.186;27.062;2022-07-30T01:18:10;10.45;;;6.03;;
25838;SDS011;13669;50.186;27.062;2022-07-30T01:20:42;8.73;;;6.30;;
25838;SDS011;13669;50.186;27.062;2022-07-30T01:23:26;31.38;;;12.68;;
25838;SDS011;13669;50.186;27.062;2022-07-30T01:26:05;33.05;;;12.45;;
25838;SDS011;13669;50.186;27.062;2022-07-30T01:28:36;38.80;;;13.40;;
25838;SDS011;13669;50.186;27.062;2022-07-30T01:33:36;46.25;;;15.90;;
25838;SDS011;13669;50.186;27.062;2022-07-30T01:36:09;55.53;;;19.38;;
25838;SDS011;13669;50.186;27.062;2022-07-30T01:38:40;36.58;;;12.85;;
25838;SDS011;13669;50.186;27.062;2022-07-30T01:41:10;39.55;;;15.15;;
25838;SDS011;13669;50.186;27.062;2022-07-30T01:43:39;34.33;;;12.77;;
25838;SDS011;13669;50.186;27.062;2022-07-30T01:46:08;39.08;;;14.80;;
25838;SDS011;13669;50.186;27.062;2022-07-30T01:48:38;34.35;;;13.07;;
25838;SDS011;13669;50.186;27.062;2022-07-30T01:51:09;27.77;;;11.45;;
25838;SDS011;13669;50.186;27.062;2022-07-30T01:53:38;24.67;;;10.57;;
25838;SDS011;13669;50.186;27.062;2022-07-30T01:56:08;23.17;;;10.63;;
25838;SDS011;13669;50.186;27.062;2022-07-30T01:58:42;21.58;;;9.32;;
25838;SDS011;13669;50.186;27.062;2022-07-30T02:01:12;16.30;;;8.27;;
25838;SDS011;13669;50.186;27.062;2022-07-30T02:03:40;14.80;;;8.23;;
25838;SDS011;13669;50.186;27.062;2022-07-30T02:06:29;14.50;;;6.78;;
25838;SDS011;13669;50.186;27.062;2022-07-30T02:09:02;10.18;;;6.20;;
25838;SDS011;13669;50.186;27.062;2022-07-30T02:11:39;14.00;;;6.82;;
25838;SDS011;13669;50.186;27.062;2022-07-30T02:14:42;10.13;;;6.03;;
25838;SDS011;13669;50.186;27.062;2022-07-30T02:17:15;13.85;;;6.32;;
25838;SDS011;13669;50.186;27.062;2022-07-30T02:19:55;7.07;;;5.60;;
25838;SDS011;13669;50.186;27.062;2022-07-30T02:22:25;14.80;;;5.93;;
25838;SDS011;13669;50.186;27.062;2022-07-30T02:24:58;8.80;;;5.30;;
25838;SDS011;13669;50.186;27.062;2022-07-30T02:27:29;8.65;;;5.45;;
25838;SDS011;13669;50.186;27.062;2022-07-30T02:29:59;10.40;;;5.40;;
25838;SDS011;13669;50.186;27.062;2022-07-30T02:32:29;9.48;;;5.60;;
25838;SDS011;13669;50.186;27.062;2022-07-30T02:35:03;11.98;;;5.30;;
25838;SDS011;13669;50.186;27.062;2022-07-30T02:37:38;8.65;;;5.50;;
25838;SDS011;13669;50.186;27.062;2022-07-30T02:40:10;7.93;;;5.65;;
25838;SDS011;13669;50.186;27.062;2022-07-30T02:42:42;6.53;;;5.40;;
25838;SDS011;13669;50.186;27.062;2022-07-30T02:45:14;13.80;;;6.13;;
25838;SDS011;13669;50.186;27.062;2022-07-30T02:47:47;8.98;;;5.95;;
25838;SDS011;13669;50.186;27.062;2022-07-30T02:50:17;10.30;;;5.55;;
25838;SDS011;13669;50.186;27.062;2022-07-30T02:52:47;8.93;;;4.97;;
25838;SDS011;13669;50.186;27.062;2022-07-30T02:55:16;7.25;;;4.97;;
25838;SDS011;13669;50.186;27.062;2022-07-30T02:57:44;8.50;;;4.80;;
25838;SDS011;13669;50.186;27.062;2022-07-30T03:00:13;6.50;;;5.15;;
25838;SDS011;13669;50.186;27.062;2022-07-30T03:02:41;7.15;;;5.10;;
25838;SDS011;13669;50.186;27.062;2022-07-30T03:05:10;6.60;;;5.22;;
25838;SDS011;13669;50.186;27.062;2022-07-30T03:07:40;6.97;;;5.18;;
25838;SDS011;13669;50.186;27.062;2022-07-30T03:10:08;5.72;;;5.05;;
25838;SDS011;13669;50.186;27.062;2022-07-30T03:12:39;9.98;;;5.07;;
25838;SDS011;13669;50.186;27.062;2022-07-30T03:15:07;7.63;;;5.43;;
25838;SDS011;13669;50.186;27.062;2022-07-30T03:17:36;10.77;;;5.80;;
25838;SDS011;13669;50.186;27.062;2022-07-30T03:20:12;8.70;;;5.30;;
25838;SDS011;13669;50.186;27.062;2022-07-30T03:22:43;7.95;;;5.13;;
25838;SDS011;13669;50.186;27.062;2022-07-30T03:25:15;8.38;;;5.35;;
25838;SDS011;13669;50.186;27.062;2022-07-30T03:27:55;9.25;;;5.20;;
25838;SDS011;13669;50.186;27.062;2022-07-30T03:30:25;7.68;;;5.30;;
25838;SDS011;13669;50.186;27.062;2022-07-30T03:32:54;10.00;;;4.95;;
25838;SDS011;13669;50.186;27.062;2022-07-30T03:35:23;10.35;;;4.95;;
25838;SDS011;13669;50.186;27.062;2022-07-30T03:37:52;7.75;;;4.85;;
25838;SDS011;13669;50.186;27.062;2022-07-30T03:40:21;9.73;;;4.80;;
25838;SDS011;13669;50.186;27.062;2022-07-30T03:42:49;7.45;;;5.18;;
25838;SDS011;13669;50.186;27.062;2022-07-30T03:45:18;9.65;;;5.00;;
25838;SDS011;13669;50.186;27.062;2022-07-30T03:47:46;7.97;;;4.80;;
25838;SDS011;13669;50.186;27.062;2022-07-30T03:50:14;8.27;;;4.75;;
25838;SDS011;13669;50.186;27.062;2022-07-30T03:52:42;6.90;;;4.90;;
25838;SDS011;13669;50.186;27.062;2022-07-30T03:55:10;6.97;;;4.57;;
25838;SDS011;13669;50.186;27.062;2022-07-30T03:57:38;9.23;;;4.72;;
25838;SDS011;13669;50.186;27.062;2022-07-30T04:00:06;7.38;;;4.57;;
25838;SDS011;13669;50.186;27.062;2022-07-30T04:02:44;6.45;;;5.10;;
25838;SDS011;13669;50.186;27.062;2022-07-30T04:05:12;7.68;;;5.32;;
25838;SDS011;13669;50.186;27.062;2022-07-30T04:07:41;9.18;;;5.18;;
25838;SDS011;13669;50.186;27.062;2022-07-30T04:10:11;7.77;;;4.53;;
25838;SDS011;13669;50.186;27.062;2022-07-30T04:12:39;10.32;;;5.07;;
25838;SDS011;13669;50.186;27.062;2022-07-30T04:15:07;11.00;;;5.35;;
25838;SDS011;13669;50.186;27.062;2022-07-30T04:17:57;5.78;;;5.18;;
25838;SDS011;13669;50.186;27.062;2022-07-30T04:20:30;7.85;;;5.15;;
25838;SDS011;13669;50.186;27.062;2022-07-30T04:23:02;11.63;;;5.53;;
25838;SDS011;13669;50.186;27.062;2022-07-30T04:25:31;8.07;;;4.70;;
25838;SDS011;13669;50.186;27.062;2022-07-30T04:27:59;7.20;;;5.05;;
25838;SDS011;13669;50.186;27.062;2022-07-30T04:30:30;9.55;;;5.07;;
25838;SDS011;13669;50.186;27.062;2022-07-30T04:35:31;8.25;;;5.28;;
25838;SDS011;13669;50.186;27.062;2022-07-30T04:38:18;8.80;;;5.43;;
25838;SDS011;13669;50.186;27.062;2022-07-30T04:40:46;13.40;;;6.40;;
25838;SDS011;13669;50.186;27.062;2022-07-30T04:43:14;13.05;;;5.85;;
25838;SDS011;13669;50.186;27.062;2022-07-30T04:45:42;11.15;;;5.90;;
25838;SDS011;13669;50.186;27.062;2022-07-30T04:48:10;10.43;;;6.00;;
25838;SDS011;13669;50.186;27.062;2022-07-30T04:50:40;6.55;;;5.07;;
25838;SDS011;13669;50.186;27.062;2022-07-30T04:55:38;9.15;;;5.32;;
25838;SDS011;13669;50.186;27.062;2022-07-30T04:58:08;8.02;;;5.00;;
25838;SDS011;13669;50.186;27.062;2022-07-30T05:00:38;9.65;;;5.28;;
25838;SDS011;13669;50.186;27.062;2022-07-30T05:03:07;10.40;;;5.35;;
25838;SDS011;13669;50.186;27.062;2022-07-30T05:05:39;8.35;;;4.75;;
25838;SDS011;13669;50.186;27.062;2022-07-30T05:08:07;6.75;;;5.10;;
25838;SDS011;13669;50.186;27.062;2022-07-30T05:10:35;10.82;;;4.88;;
25838;SDS011;13669;50.186;27.062;2022-07-30T05:13:04;8.50;;;4.60;;
25838;SDS011;13669;50.186;27.062;2022-07-30T05:15:39;9.93;;;5.20;;
25838;SDS011;13669;50.186;27.062;2022-07-30T05:18:06;7.20;;;4.65;;
25838;SDS011;13669;50.186;27.062;2022-07-30T05:20:34;11.98;;;4.30;;
25838;SDS011;13669;50.186;27.062;2022-07-30T05:23:02;7.40;;;4.40;;
25838;SDS011;13669;50.186;27.062;2022-07-30T05:25:30;8.27;;;4.55;;
25838;SDS011;13669;50.186;27.062;2022-07-30T05:27:58;8.23;;;4.50;;
25838;SDS011;13669;50.186;27.062;2022-07-30T05:30:26;7.43;;;4.47;;
25838;SDS011;13669;50.186;27.062;2022-07-30T05:32:53;9.73;;;4.35;;
25838;SDS011;13669;50.186;27.062;2022-07-30T05:35:21;7.60;;;4.00;;
25838;SDS011;13669;50.186;27.062;2022-07-30T05:37:49;12.15;;;3.65;;
25838;SDS011;13669;50.186;27.062;2022-07-30T05:40:16;6.97;;;3.50;;
25838;SDS011;13669;50.186;27.062;2022-07-30T05:42:44;6.90;;;3.35;;
25838;SDS011;13669;50.186;27.062;2022-07-30T05:45:11;6.63;;;3.13;;
25838;SDS011;13669;50.186;27.062;2022-07-30T05:47:39;4.43;;;2.95;;
25838;SDS011;13669;50.186;27.062;2022-07-30T05:50:06;8.55;;;3.10;;
25838;SDS011;13669;50.186;27.062;2022-07-30T05:52:34;4.18;;;2.42;;
25838;SDS011;13669;50.186;27.062;2022-07-30T05:55:02;5.05;;;2.78;;
25838;SDS011;13669;50.186;27.062;2022-07-30T05:57:30;11.13;;;6.50;;
25838;SDS011;13669;50.186;27.062;2022-07-30T06:00:00;9.02;;;3.15;;
25838;SDS011;13669;50.186;27.062;2022-07-30T06:02:28;4.35;;;2.47;;
25838;SDS011;13669;50.186;27.062;2022-07-30T06:04:56;6.40;;;2.20;;
25838;SDS011;13669;50.186;27.062;2022-07-30T06:07:24;6.50;;;2.13;;
25838;SDS011;13669;50.186;27.062;2022-07-30T06:09:51;6.40;;;2.50;;
25838;SDS011;13669;50.186;27.062;2022-07-30T06:12:19;7.88;;;2.58;;
25838;SDS011;13669;50.186;27.062;2022-07-30T06:14:46;3.78;;;2.30;;
25838;SDS011;13669;50.186;27.062;2022-07-30T06:17:14;7.55;;;2.40;;
25838;SDS011;13669;50.186;27.062;2022-07-30T06:19:41;5.32;;;2.45;;
25838;SDS011;13669;50.186;27.062;2022-07-30T06:22:09;9.20;;;2.63;;
25838;SDS011;13669;50.186;27.062;2022-07-30T06:24:36;8.48;;;2.42;;
25838;SDS011;13669;50.186;27.062;2022-07-30T06:27:04;6.15;;;2.40;;
25838;SDS011;13669;50.186;27.062;2022-07-30T06:29:31;4.30;;;2.45;;
25838;SDS011;13669;50.186;27.062;2022-07-30T06:31:59;3.97;;;2.17;;
25838;SDS011;13669;50.186;27.062;2022-07-30T06:34:26;3.40;;;2.30;;
25838;SDS011;13669;50.186;27.062;2022-07-30T06:36:54;3.95;;;2.10;;
25838;SDS011;13669;50.186;27.062;2022-07-30T06:39:21;5.13;;;2.50;;
25838;SDS011;13669;50.186;27.062;2022-07-30T06:42:09;4.30;;;1.92;;
25838;SDS011;13669;50.186;27.062;2022-07-30T06:44:36;4.15;;;1.80;;
25838;SDS011;13669;50.186;27.062;2022-07-30T06:47:04;4.95;;;2.20;;
25838;SDS011;13669;50.186;27.062;2022-07-30T06:49:34;9.30;;;2.50;;
25838;SDS011;13669;50.186;27.062;2022-07-30T06:52:02;3.95;;;1.75;;
25838;SDS011;13669;50.186;27.062;2022-07-30T06:54:30;5.25;;;1.80;;
25838;SDS011;13669;50.186;27.062;2022-07-30T06:56:58;4.97;;;2.33;;
25838;SDS011;13669;50.186;27.062;2022-07-30T06:59:26;7.03;;;4.38;;
25838;SDS011;13669;50.186;27.062;2022-07-30T07:01:53;8.25;;;2.67;;
25838;SDS011;13669;50.186;27.062;2022-07-30T07:04:21;7.80;;;2.13;;
25838;SDS011;13669;50.186;27.062;2022-07-30T07:06:49;6.57;;;2.03;;
25838;SDS011;13669;50.186;27.062;2022-07-30T07:09:16;3.88;;;1.90;;
25838;SDS011;13669;50.186;27.062;2022-07-30T07:11:44;3.67;;;2.28;;
25838;SDS011;13669;50.186;27.062;2022-07-30T07:14:11;7.88;;;2.00;;
25838;SDS011;13669;50.186;27.062;2022-07-30T07:16:39;5.63;;;2.10;;
25838;SDS011;13669;50.186;27.062;2022-07-30T07:19:06;7.25;;;2.10;;
25838;SDS011;13669;50.186;27.062;2022-07-30T07:21:34;5.55;;;1.70;;
25838;SDS011;13669;50.186;27.062;2022-07-30T07:24:02;6.05;;;2.00;;
25838;SDS011;13669;50.186;27.062;2022-07-30T07:26:30;5.28;;;1.90;;
25838;SDS011;13669;50.186;27.062;2022-07-30T07:28:57;6.18;;;2.15;;
25838;SDS011;13669;50.186;27.062;2022-07-30T07:31:30;6.43;;;2.20;;
25838;SDS011;13669;50.186;27.062;2022-07-30T07:34:18;7.25;;;2.33;;
25838;SDS011;13669;50.186;27.062;2022-07-30T07:36:45;13.23;;;2.83;;
25838;SDS011;13669;50.186;27.062;2022-07-30T07:39:13;3.08;;;1.88;;
25838;SDS011;13669;50.186;27.062;2022-07-30T07:41:41;6.15;;;2.10;;
25838;SDS011;13669;50.186;27.062;2022-07-30T07:44:15;5.85;;;2.10;;
25838;SDS011;13669;50.186;27.062;2022-07-30T07:46:42;6.45;;;2.35;;
25838;SDS011;13669;50.186;27.062;2022-07-30T07:49:10;6.78;;;2.60;;
25838;SDS011;13669;50.186;27.062;2022-07-30T07:51:37;11.68;;;5.03;;
25838;SDS011;13669;50.186;27.062;2022-07-30T07:54:14;7.40;;;2.20;;
25838;SDS011;13669;50.186;27.062;2022-07-30T07:56:49;5.80;;;2.42;;
25838;SDS011;13669;50.186;27.062;2022-07-30T07:59:18;4.40;;;2.03;;
25838;SDS011;13669;50.186;27.062;2022-07-30T08:01:48;5.50;;;2.03;;
25838;SDS011;13669;50.186;27.062;2022-07-30T08:04:17;3.22;;;1.70;;
25838;SDS011;13669;50.186;27.062;2022-07-30T08:06:44;4.57;;;1.85;;
25838;SDS011;13669;50.186;27.062;2022-07-30T08:09:12;2.95;;;1.95;;
25838;SDS011;13669;50.186;27.062;2022-07-30T08:11:39;4.50;;;2.15;;
25838;SDS011;13669;50.186;27.062;2022-07-30T08:14:07;7.75;;;1.92;;
25838;SDS011;13669;50.186;27.062;2022-07-30T08:16:34;4.90;;;2.03;;
25838;SDS011;13669;50.186;27.062;2022-07-30T08:19:02;8.98;;;1.60;;
25838;SDS011;13669;50.186;27.062;2022-07-30T08:21:29;5.22;;;1.65;;
25838;SDS011;13669;50.186;27.062;2022-07-30T08:23:57;2.67;;;1.63;;
25838;SDS011;13669;50.186;27.062;2022-07-30T08:26:24;4.10;;;2.28;;
25838;SDS011;13669;50.186;27.062;2022-07-30T08:28:52;2.17;;;1.35;;
25838;SDS011;13669;50.186;27.062;2022-07-30T08:31:20;2.70;;;1.80;;
25838;SDS011;13669;50.186;27.062;2022-07-30T08:33:47;8.57;;;1.73;;
25838;SDS011;13669;50.186;27.062;2022-07-30T08:36:15;5.70;;;1.50;;
25838;SDS011;13669;50.186;27.062;2022-07-30T08:38:43;6.20;;;1.88;;
25838;SDS011;13669;50.186;27.062;2022-07-30T08:41:10;3.22;;;1.40;;
25838;SDS011;13669;50.186;27.062;2022-07-30T08:43:39;3.72;;;1.38;;
25838;SDS011;13669;50.186;27.062;2022-07-30T08:46:07;3.58;;;1.67;;
25838;SDS011;13669;50.186;27.062;2022-07-30T08:48:39;2.95;;;1.92;;
25838;SDS011;13669;50.186;27.062;2022-07-30T08:51:08;7.15;;;1.58;;
25838;SDS011;13669;50.186;27.062;2022-07-30T08:53:36;2.58;;;1.42;;
25838;SDS011;13669;50.186;27.062;2022-07-30T08:56:05;2.55;;;1.60;;
25838;SDS011;13669;50.186;27.062;2022-07-30T08:58:33;3.22;;;1.70;;
25838;SDS011;13669;50.186;27.062;2022-07-30T09:01:01;5.78;;;1.88;;
25838;SDS011;13669;50.186;27.062;2022-07-30T09:03:30;4.80;;;1.90;;
25838;SDS011;13669;50.186;27.062;2022-07-30T09:06:02;3.33;;;1.75;;
25838;SDS011;13669;50.186;27.062;2022-07-30T09:08:30;6.68;;;1.98;;
25838;SDS011;13669;50.186;27.062;2022-07-30T09:10:58;2.85;;;1.70;;
25838;SDS011;13669;50.186;27.062;2022-07-30T09:13:27;3.30;;;1.70;;
25838;SDS011;13669;50.186;27.062;2022-07-30T09:16:00;3.92;;;1.65;;
25838;SDS011;13669;50.186;27.062;2022-07-30T09:18:38;4.30;;;1.88;;
25838;SDS011;13669;50.186;27.062;2022-07-30T09:21:17;3.53;;;1.48;;
25838;SDS011;13669;50.186;27.062;2022-07-30T09:26:31;4.18;;;1.88;;
25838;SDS011;13669;50.186;27.062;2022-07-30T09:29:26;2.78;;;1.60;;
25838;SDS011;13669;50.186;27.062;2022-07-30T09:31:59;2.47;;;1.60;;
25838;SDS011;13669;50.186;27.062;2022-07-30T09:34:30;7.05;;;1.42;;
25838;SDS011;13669;50.186;27.062;2022-07-30T09:37:03;2.55;;;1.50;;
25838;SDS011;13669;50.186;27.062;2022-07-30T09:39:40;3.17;;;1.13;;
25838;SDS011;13669;50.186;27.062;2022-07-30T09:42:25;6.82;;;1.58;;
25838;SDS011;13669;50.186;27.062;2022-07-30T09:45:13;6.10;;;1.58;;
25838;SDS011;13669;50.186;27.062;2022-07-30T09:47:42;4.22;;;1.25;;
25838;SDS011;13669;50.186;27.062;2022-07-30T09:50:14;2.78;;;1.20;;
25838;SDS011;13669;50.186;27.062;2022-07-30T09:53:04;3.53;;;1.38;;
25838;SDS011;13669;50.186;27.062;2022-07-30T09:55:35;4.55;;;1.77;;
25838;SDS011;13669;50.186;27.062;2022-07-30T09:58:08;7.15;;;1.40;;
25838;SDS011;13669;50.186;27.062;2022-07-30T10:00:42;4.28;;;1.27;;
25838;SDS011;13669;50.186;27.062;2022-07-30T10:03:20;3.63;;;1.10;;
25838;SDS011;13669;50.186;27.062;2022-07-30T10:05:59;4.85;;;1.35;;
25838;SDS011;13669;50.186;27.062;2022-07-30T10:08:39;3.17;;;1.30;;
25838;SDS011;13669;50.186;27.062;2022-07-30T10:11:14;3.80;;;1.50;;
25838;SDS011;13669;50.186;27.062;2022-07-30T10:13:52;5.03;;;1.52;;
25838;SDS011;13669;50.186;27.062;2022-07-30T10:16:21;4.63;;;1.52;;
25838;SDS011;13669;50.186;27.062;2022-07-30T10:18:52;3.95;;;1.67;;
25838;SDS011;13669;50.186;27.062;2022-07-30T10:21:23;4.50;;;2.03;;
25838;SDS011;13669;50.186;27.062;2022-07-30T10:23:52;5.78;;;2.13;;
25838;SDS011;13669;50.186;27.062;2022-07-30T10:26:20;6.80;;;2.00;;
25838;SDS011;13669;50.186;27.062;2022-07-30T10:28:48;9.07;;;3.10;;
25838;SDS011;13669;50.186;27.062;2022-07-30T10:31:18;5.97;;;2.80;;
25838;SDS011;13669;50.186;27.062;2022-07-30T10:34:05;8.27;;;3.65;;
25838;SDS011;13669;50.186;27.062;2022-07-30T10:36:33;10.73;;;2.40;;
25838;SDS011;13669;50.186;27.062;2022-07-30T10:39:02;4.95;;;2.35;;
25838;SDS011;13669;50.186;27.062;2022-07-30T10:47:12;5.55;;;2.22;;
25838;SDS011;13669;50.186;27.062;2022-07-30T10:52:42;9.68;;;4.82;;
25838;SDS011;13669;50.186;27.062;2022-07-30T10:58:12;4.95;;;2.60;;
25838;SDS011;13669;50.186;27.062;2022-07-30T11:03:18;6.40;;;1.50;;
25838;SDS011;13669;50.186;27.062;2022-07-30T11:08:50;6.60;;;1.90;;
25838;SDS011;13669;50.186;27.062;2022-07-30T11:14:13;6.43;;;2.10;;
25838;SDS011;13669;50.186;27.062;2022-07-30T11:19:25;3.17;;;1.55;;
25838;SDS011;13669;50.186;27.062;2022-07-30T11:22:24;8.40;;;1.70;;
25838;SDS011;13669;50.186;27.062;2022-07-30T11:24:58;6.45;;;1.80;;
25838;SDS011;13669;50.186;27.062;2022-07-30T11:32:45;8.10;;;2.17;;
25838;SDS011;13669;50.186;27.062;2022-07-30T11:38:13;5.50;;;1.83;;
25838;SDS011;13669;50.186;27.062;2022-07-30T11:41:07;3.55;;;1.70;;
25838;SDS011;13669;50.186;27.062;2022-07-30T11:43:32;6.22;;;1.70;;
25838;SDS011;13669;50.186;27.062;2022-07-30T11:48:56;4.97;;;1.90;;
25838;SDS011;13669;50.186;27.062;2022-07-30T11:51:25;11.63;;;2.43;;
25838;SDS011;13669;50.186;27.062;2022-07-30T11:54:02;4.38;;;1.73;;
25838;SDS011;13669;50.186;27.062;2022-07-30T11:56:32;6.13;;;1.60;;
25838;SDS011;13669;50.186;27.062;2022-07-30T11:59:00;8.30;;;1.30;;
25838;SDS011;13669;50.186;27.062;2022-07-30T12:01:33;7.65;;;1.40;;
25838;SDS011;13669;50.186;27.062;2022-07-30T12:04:02;4.38;;;1.40;;
25838;SDS011;13669;50.186;27.062;2022-07-30T12:06:31;4.53;;;1.53;;
25838;SDS011;13669;50.186;27.062;2022-07-30T12:08:59;8.57;;;1.48;;
25838;SDS011;13669;50.186;27.062;2022-07-30T12:11:33;6.43;;;1.55;;
25838;SDS011;13669;50.186;27.062;2022-07-30T12:14:01;3.42;;;2.30;;
25838;SDS011;13669;50.186;27.062;2022-07-30T12:16:29;9.15;;;1.80;;
25838;SDS011;13669;50.186;27.062;2022-07-30T12:19:02;8.02;;;1.77;;
25838;SDS011;13669;50.186;27.062;2022-07-30T12:21:31;4.22;;;1.40;;
25838;SDS011;13669;50.186;27.062;2022-07-30T12:24:00;6.63;;;1.50;;
25838;SDS011;13669;50.186;27.062;2022-07-30T12:26:33;5.38;;;2.20;;
25838;SDS011;13669;50.186;27.062;2022-07-30T12:29:04;5.47;;;1.63;;
25838;SDS011;13669;50.186;27.062;2022-07-30T12:31:37;3.70;;;1.50;;
25838;SDS011;13669;50.186;27.062;2022-07-30T12:34:19;3.50;;;1.42;;
25838;SDS011;13669;50.186;27.062;2022-07-30T12:36:48;4.38;;;2.38;;
25838;SDS011;13669;50.186;27.062;2022-07-30T12:39:17;5.55;;;1.80;;
25838;SDS011;13669;50.186;27.062;2022-07-30T12:41:47;4.53;;;2.08;;
25838;SDS011;13669;50.186;27.062;2022-07-30T12:47:29;3.58;;;1.38;;
25838;SDS011;13669;50.186;27.062;2022-07-30T12:49:57;6.03;;;1.60;;
25838;SDS011;13669;50.186;27.062;2022-07-30T12:52:28;3.80;;;1.48;;
25838;SDS011;13669;50.186;27.062;2022-07-30T13:00:22;6.63;;;1.83;;
25838;SDS011;13669;50.186;27.062;2022-07-30T13:05:18;5.82;;;1.83;;
25838;SDS011;13669;50.186;27.062;2022-07-30T13:07:53;3.72;;;1.42;;
25838;SDS011;13669;50.186;27.062;2022-07-30T13:10:24;6.05;;;1.73;;
25838;SDS011;13669;50.186;27.062;2022-07-30T13:12:57;4.63;;;1.55;;
25838;SDS011;13669;50.186;27.062;2022-07-30T13:15:25;4.82;;;1.60;;
25838;SDS011;13669;50.186;27.062;2022-07-30T13:17:53;6.07;;;1.30;;
25838;SDS011;13669;50.186;27.062;2022-07-30T13:20:20;9.18;;;2.00;;
25838;SDS011;13669;50.186;27.062;2022-07-30T13:22:48;8.85;;;2.17;;
25838;SDS011;13669;50.186;27.062;2022-07-30T13:25:15;3.67;;;1.25;;
25838;SDS011;13669;50.186;27.062;2022-07-30T13:27:43;8.15;;;1.45;;
25838;SDS011;13669;50.186;27.062;2022-07-30T13:30:11;10.88;;;1.90;;
25838;SDS011;13669;50.186;27.062;2022-07-30T13:32:39;4.68;;;1.33;;
25838;SDS011;13669;50.186;27.062;2022-07-30T13:35:06;7.70;;;1.60;;
25838;SDS011;13669;50.186;27.062;2022-07-30T13:37:34;4.53;;;1.52;;
25838;SDS011;13669;50.186;27.062;2022-07-30T13:40:04;5.57;;;1.52;;
25838;SDS011;13669;50.186;27.062;2022-07-30T13:42:32;4.07;;;1.30;;
25838;SDS011;13669;50.186;27.062;2022-07-30T13:45:00;4.32;;;1.45;;
25838;SDS011;13669;50.186;27.062;2022-07-30T13:47:28;6.28;;;1.30;;
25838;SDS011;13669;50.186;27.062;2022-07-30T13:49:55;3.83;;;1.70;;
25838;SDS011;13669;50.186;27.062;2022-07-30T13:52:23;5.10;;;1.50;;
25838;SDS011;13669;50.186;27.062;2022-07-30T13:54:50;4.57;;;2.00;;
25838;SDS011;13669;50.186;27.062;2022-07-30T13:57:19;4.65;;;1.80;;
25838;SDS011;13669;50.186;27.062;2022-07-30T13:59:46;8.68;;;1.65;;
25838;SDS011;13669;50.186;27.062;2022-07-30T14:02:14;7.05;;;1.80;;
25838;SDS011;13669;50.186;27.062;2022-07-30T14:04:41;9.60;;;2.00;;
25838;SDS011;13669;50.186;27.062;2022-07-30T14:07:09;6.20;;;1.92;;
25838;SDS011;13669;50.186;27.062;2022-07-30T14:09:36;2.90;;;1.23;;
25838;SDS011;13669;50.186;27.062;2022-07-30T14:12:12;2.88;;;1.50;;
25838;SDS011;13669;50.186;27.062;2022-07-30T14:14:40;4.97;;;2.03;;
25838;SDS011;13669;50.186;27.062;2022-07-30T14:17:07;5.20;;;1.55;;
25838;SDS011;13669;50.186;27.062;2022-07-30T14:19:35;3.28;;;1.83;;
25838;SDS011;13669;50.186;27.062;2022-07-30T14:22:02;4.45;;;1.77;;
25838;SDS011;13669;50.186;27.062;2022-07-30T14:24:30;3.40;;;1.48;;
25838;SDS011;13669;50.186;27.062;2022-07-30T14:26:57;3.75;;;1.77;;
25838;SDS011;13669;50.186;27.062;2022-07-30T14:29:26;4.82;;;2.00;;
25838;SDS011;13669;50.186;27.062;2022-07-30T14:31:54;3.78;;;1.58;;
25838;SDS011;13669;50.186;27.062;2022-07-30T14:34:21;4.43;;;1.63;;
25838;SDS011;13669;50.186;27.062;2022-07-30T14:36:49;7.07;;;1.67;;
25838;SDS011;13669;50.186;27.062;2022-07-30T14:39:16;4.90;;;1.60;;
25838;SDS011;13669;50.186;27.062;2022-07-30T14:41:44;2.15;;;1.40;;
25838;SDS011;13669;50.186;27.062;2022-07-30T14:44:12;10.15;;;2.15;;
25838;SDS011;13669;50.186;27.062;2022-07-30T14:49:18;10.63;;;1.70;;
25838;SDS011;13669;50.186;27.062;2022-07-30T14:51:50;4.95;;;1.58;;
25838;SDS011;13669;50.186;27.062;2022-07-30T14:54:17;4.43;;;1.40;;
25838;SDS011;13669;50.186;27.062;2022-07-30T14:56:45;2.92;;;1.58;;
25838;SDS011;13669;50.186;27.062;2022-07-30T14:59:13;3.15;;;1.20;;
25838;SDS011;13669;50.186;27.062;2022-07-30T15:01:41;2.05;;;1.30;;
25838;SDS011;13669;50.186;27.062;2022-07-30T15:04:09;4.40;;;1.67;;
25838;SDS011;13669;50.186;27.062;2022-07-30T15:06:38;5.05;;;1.95;;
25838;SDS011;13669;50.186;27.062;2022-07-30T15:09:07;4.10;;;1.63;;
25838;SDS011;13669;50.186;27.062;2022-07-30T15:11:35;4.15;;;1.65;;
25838;SDS011;13669;50.186;27.062;2022-07-30T15:14:23;7.28;;;1.88;;
25838;SDS011;13669;50.186;27.062;2022-07-30T15:16:54;3.20;;;1.58;;
25838;SDS011;13669;50.186;27.062;2022-07-30T15:19:29;4.00;;;1.80;;
25838;SDS011;13669;50.186;27.062;2022-07-30T15:21:57;7.40;;;1.50;;
25838;SDS011;13669;50.186;27.062;2022-07-30T15:24:28;9.60;;;1.60;;
25838;SDS011;13669;50.186;27.062;2022-07-30T15:26:57;6.50;;;1.98;;
25838;SDS011;13669;50.186;27.062;2022-07-30T15:29:25;3.83;;;1.50;;
25838;SDS011;13669;50.186;27.062;2022-07-30T15:31:55;3.90;;;1.80;;
25838;SDS011;13669;50.186;27.062;2022-07-30T15:34:26;4.15;;;1.75;;
25838;SDS011;13669;50.186;27.062;2022-07-30T15:36:54;3.92;;;1.65;;
25838;SDS011;13669;50.186;27.062;2022-07-30T15:39:21;6.28;;;1.90;;
25838;SDS011;13669;50.186;27.062;2022-07-30T15:41:49;4.32;;;1.70;;
25838;SDS011;13669;50.186;27.062;2022-07-30T15:44:19;4.93;;;1.70;;
25838;SDS011;13669;50.186;27.062;2022-07-30T15:46:46;4.93;;;1.70;;